Time;durP1;ratioP1;P1;durP2;ratioP2;P2;SDS_P1;SDS_P2;PMS_P1;PMS_P2;Temp;Humidity;BMP_temperature;BMP_pressure;BME280_temperature;BME280_humidity;BME280_pressure;Samples;Min_cycle;Max_cycle;Signal;HPM_P1;HPM_P2
2022/07/03 00:02:09;;;;;;;3.30;2.60;;;15.20;99.90;;;;;;4985073;28;20208;-59
2022/07/03 00:04:34;;;;;;;2.70;2.33;;;15.20;99.90;;;;;;4984762;28;20436;-60
2022/07/03 00:07:00;;;;;;;3.40;2.13;;;15.20;99.90;;;;;;4987099;28;20436;-59
2022/07/03 00:09:26;;;;;;;3.73;2.73;;;15.20;99.90;;;;;;4989102;28;20577;-60
2022/07/03 00:11:51;;;;;;;5.20;2.63;;;15.10;99.90;;;;;;4987433;28;20212;-60
2022/07/03 00:14:17;;;;;;;3.00;2.70;;;15.10;99.90;;;;;;4980897;28;20189;-61
2022/07/03 00:16:43;;;;;;;4.30;3.20;;;15.10;99.90;;;;;;4989076;28;20177;-60
2022/07/03 00:19:09;;;;;;;4.40;2.80;;;15.00;99.90;;;;;;4985900;28;20260;-60
2022/07/03 00:21:43;;;;;;;3.00;2.80;;;15.00;99.90;;;;;;4983924;28;20173;-60
2022/07/03 00:24:20;;;;;;;3.13;2.77;;;15.00;99.90;;;;;;4985415;28;20180;-59
2022/07/03 00:26:50;;;;;;;2.73;2.53;;;14.90;99.90;;;;;;4990634;28;20419;-59
2022/07/03 00:29:17;;;;;;;2.60;2.40;;;14.90;99.90;;;;;;4987905;28;20917;-61
2022/07/03 00:31:43;;;;;;;2.33;2.13;;;14.90;99.90;;;;;;4971554;28;20483;-60
2022/07/03 00:34:11;;;;;;;2.50;2.30;;;14.80;99.90;;;;;;4985118;28;20432;-60
2022/07/03 00:36:37;;;;;;;2.90;2.70;;;14.80;99.90;;;;;;4986486;28;20214;-60
2022/07/03 00:39:04;;;;;;;5.70;2.90;;;14.80;99.90;;;;;;4984150;28;21113;-60
2022/07/03 00:41:32;;;;;;;5.40;2.80;;;14.80;99.90;;;;;;4986313;28;20416;-61
2022/07/03 00:43:58;;;;;;;3.70;2.50;;;14.70;99.90;;;;;;4981141;28;20432;-60
2022/07/03 00:46:26;;;;;;;3.80;2.47;;;14.70;99.90;;;;;;4986795;28;20436;-62
2022/07/03 00:48:53;;;;;;;3.07;2.80;;;14.70;99.90;;;;;;4983868;28;20433;-60
2022/07/03 00:51:28;;;;;;;3.20;2.90;;;14.70;99.90;;;;;;4990703;28;20415;-60
2022/07/03 00:53:58;;;;;;;3.50;2.83;;;14.60;99.90;;;;;;4985258;28;20531;-59
2022/07/03 00:56:29;;;;;;;4.37;2.30;;;14.60;99.90;;;;;;4989607;28;20969;-60
2022/07/03 00:58:58;;;;;;;3.63;2.60;;;14.60;99.90;;;;;;4981726;28;20494;-61
2022/07/03 01:01:29;;;;;;;4.43;2.43;;;14.60;99.90;;;;;;4984289;28;20497;-60
2022/07/03 01:04:22;;;;;;;2.97;2.77;;;14.50;99.90;;;;;;4983301;28;20458;-61
2022/07/03 01:07:12;;;;;;;2.77;2.40;;;14.50;99.90;;;;;;4985827;28;20941;-61
2022/07/03 01:10:04;;;;;;;4.27;2.70;;;14.50;99.90;;;;;;4978850;28;20444;-60
2022/07/03 01:13:04;;;;;;;3.10;2.80;;;14.50;99.90;;;;;;4972861;28;21095;-60
2022/07/03 01:15:39;;;;;;;3.00;2.77;;;14.40;99.90;;;;;;4985394;28;20455;-60
2022/07/03 01:18:39;;;;;;;3.60;2.67;;;14.40;99.90;;;;;;4978320;28;20498;-60
2022/07/03 01:21:24;;;;;;;3.17;2.73;;;14.40;99.90;;;;;;4985106;28;20415;-60
2022/07/03 01:24:37;;;;;;;8.30;3.07;;;14.40;99.90;;;;;;4979364;28;20444;-60
2022/07/03 01:27:16;;;;;;;6.27;3.13;;;14.40;99.90;;;;;;4985109;28;20457;-60
2022/07/03 01:30:11;;;;;;;2.87;2.60;;;14.40;99.90;;;;;;4986658;28;20865;-60
2022/07/03 01:32:49;;;;;;;5.13;2.60;;;14.30;99.90;;;;;;4968955;28;20595;-61
2022/07/03 01:35:24;;;;;;;2.70;2.50;;;14.30;99.90;;;;;;4986218;28;20432;-60
2022/07/03 01:37:54;;;;;;;3.70;2.77;;;14.30;99.90;;;;;;4984086;28;21145;-60
2022/07/03 01:40:23;;;;;;;3.20;3.00;;;14.30;99.90;;;;;;4981275;28;20429;-60
2022/07/03 01:42:49;;;;;;;2.63;2.43;;;14.30;99.90;;;;;;4983865;28;20506;-61
2022/07/03 01:45:15;;;;;;;3.17;2.87;;;14.20;99.90;;;;;;4983757;28;20440;-61
2022/07/03 01:47:45;;;;;;;4.20;2.77;;;14.20;99.90;;;;;;4981332;28;20439;-60
2022/07/03 01:50:13;;;;;;;3.23;2.57;;;14.10;99.90;;;;;;4984893;28;20953;-61
2022/07/03 01:52:44;;;;;;;2.87;2.67;;;14.10;99.90;;;;;;4986652;28;20432;-60
2022/07/03 01:55:12;;;;;;;2.97;2.77;;;14.10;99.90;;;;;;4987988;28;20921;-61
2022/07/03 01:57:47;;;;;;;3.00;2.47;;;14.10;99.90;;;;;;4978245;28;20889;-60
2022/07/03 02:00:18;;;;;;;3.83;2.97;;;14.00;99.90;;;;;;4988522;28;20408;-61
2022/07/03 02:03:04;;;;;;;4.50;2.97;;;14.00;99.90;;;;;;4987418;28;20471;-61
2022/07/03 02:05:38;;;;;;;4.40;3.00;;;13.90;99.90;;;;;;4989293;28;20425;-60
2022/07/03 02:08:23;;;;;;;2.90;2.67;;;13.90;99.90;;;;;;4985586;28;20479;-60
2022/07/03 02:11:16;;;;;;;3.30;2.97;;;13.90;99.90;;;;;;4987411;28;20424;-61
2022/07/03 02:14:13;;;;;;;3.13;2.60;;;13.90;99.90;;;;;;4976175;28;20998;-60
2022/07/03 02:16:51;;;;;;;2.83;2.63;;;13.90;99.90;;;;;;4975758;28;21066;-60
2022/07/03 02:19:18;;;;;;;3.17;2.70;;;13.90;99.90;;;;;;4981176;28;20487;-60
2022/07/03 02:21:51;;;;;;;3.00;2.80;;;13.90;99.90;;;;;;4988219;28;20526;-60
2022/07/03 02:24:18;;;;;;;3.87;2.77;;;13.90;99.90;;;;;;4988649;28;20468;-60
2022/07/03 02:26:52;;;;;;;3.10;2.80;;;13.80;99.90;;;;;;4985548;28;20467;-60
2022/07/03 02:29:24;;;;;;;12.33;2.77;;;13.80;99.90;;;;;;4987393;28;20439;-59
2022/07/03 02:31:59;;;;;;;4.10;2.97;;;13.80;99.90;;;;;;4973051;28;21133;-60
2022/07/03 02:34:27;;;;;;;2.90;2.70;;;13.70;99.90;;;;;;4988967;28;20939;-59
2022/07/03 02:36:57;;;;;;;2.90;2.70;;;13.70;99.90;;;;;;4992820;28;20427;-61
2022/07/03 02:39:29;;;;;;;2.87;2.67;;;13.70;99.90;;;;;;4982283;28;20460;-60
2022/07/03 02:42:03;;;;;;;8.30;3.00;;;13.70;99.90;;;;;;4980839;28;20494;-60
2022/07/03 02:44:45;;;;;;;5.60;2.60;;;13.60;99.90;;;;;;4980830;28;20943;-60
2022/07/03 02:47:29;;;;;;;3.63;3.33;;;13.60;99.90;;;;;;4984782;28;20412;-60
2022/07/03 02:50:11;;;;;;;3.30;2.90;;;13.60;99.90;;;;;;4985167;28;20489;-60
2022/07/03 02:52:40;;;;;;;3.47;3.17;;;13.60;99.90;;;;;;4992614;28;20431;-60
2022/07/03 02:55:44;;;;;;;4.57;3.00;;;13.60;99.90;;;;;;4976924;28;20793;-60
2022/07/03 02:58:31;;;;;;;5.93;3.10;;;13.60;99.90;;;;;;4989988;28;20451;-60
2022/07/03 03:00:57;;;;;;;3.00;2.80;;;13.50;99.90;;;;;;4978506;28;20416;-60
2022/07/03 03:03:27;;;;;;;3.23;2.93;;;13.50;99.90;;;;;;4987490;28;20486;-61
2022/07/03 03:05:58;;;;;;;9.37;3.10;;;13.40;99.90;;;;;;4979653;28;20608;-60
2022/07/03 03:08:36;;;;;;;3.10;2.50;;;13.40;99.90;;;;;;4989661;28;20485;-60
2022/07/03 03:11:07;;;;;;;2.70;2.50;;;13.40;99.90;;;;;;4985128;28;20992;-60
2022/07/03 03:13:33;;;;;;;5.30;2.93;;;13.30;99.90;;;;;;4983114;28;20436;-60
2022/07/03 03:16:11;;;;;;;3.03;2.73;;;13.30;99.90;;;;;;4980404;28;20485;-60
2022/07/03 03:18:43;;;;;;;3.37;3.07;;;13.30;99.90;;;;;;4986019;28;20974;-61
2022/07/03 03:21:10;;;;;;;2.50;2.30;;;13.20;99.90;;;;;;4989198;28;20503;-61
2022/07/03 03:23:44;;;;;;;3.00;2.53;;;13.20;99.90;;;;;;4988908;28;20436;-61
2022/07/03 03:26:11;;;;;;;2.63;2.43;;;13.20;99.90;;;;;;4982308;28;20427;-60
2022/07/03 03:28:38;;;;;;;2.70;2.50;;;13.20;99.90;;;;;;4981287;28;20428;-61
2022/07/03 03:31:07;;;;;;;2.80;2.60;;;13.20;99.90;;;;;;4981134;28;20440;-60
2022/07/03 03:33:43;;;;;;;2.60;2.40;;;13.10;99.90;;;;;;4987678;28;20449;-62
2022/07/03 03:36:11;;;;;;;2.53;2.40;;;13.10;99.90;;;;;;4985676;28;20921;-60
2022/07/03 03:38:37;;;;;;;2.93;2.73;;;13.10;99.90;;;;;;4987741;28;20452;-61
2022/07/03 03:41:03;;;;;;;6.47;2.77;;;13.10;99.90;;;;;;4990648;28;20779;-60
2022/07/03 03:43:31;;;;;;;2.70;2.50;;;13.10;99.90;;;;;;4986674;28;20455;-60
2022/07/03 03:45:57;;;;;;;3.03;2.73;;;13.10;99.90;;;;;;4993922;28;20770;-60
2022/07/03 03:48:23;;;;;;;2.63;2.43;;;13.10;99.90;;;;;;4994801;28;20446;-62
2022/07/03 03:50:49;;;;;;;3.50;3.20;;;13.00;99.90;;;;;;4998956;28;20420;-60
2022/07/03 03:53:17;;;;;;;3.63;3.20;;;13.10;99.90;;;;;;4991337;28;20428;-60
2022/07/03 03:56:05;;;;;;;3.50;3.20;;;13.10;99.90;;;;;;4991615;28;20193;-60
2022/07/03 03:58:32;;;;;;;3.60;2.60;;;13.00;99.90;;;;;;4988762;28;20459;-62
2022/07/03 04:00:59;;;;;;;6.13;2.40;;;13.00;99.90;;;;;;4991606;28;20454;-60
2022/07/03 04:03:25;;;;;;;5.33;2.40;;;13.10;99.90;;;;;;4990273;28;20443;-61
2022/07/03 04:05:51;;;;;;;3.07;2.77;;;13.10;99.90;;;;;;4987385;28;20439;-61
2022/07/03 04:08:18;;;;;;;2.83;2.53;;;13.10;99.90;;;;;;4990120;28;20440;-59
2022/07/03 04:10:43;;;;;;;3.00;2.80;;;13.10;99.90;;;;;;4986566;28;21062;-60
2022/07/03 04:13:09;;;;;;;5.60;2.70;;;13.10;99.90;;;;;;4989617;28;20839;-61
2022/07/03 04:15:34;;;;;;;3.93;2.40;;;13.10;99.90;;;;;;4988625;28;20181;-60
2022/07/03 04:18:00;;;;;;;3.07;2.87;;;13.10;99.90;;;;;;4989779;28;20192;-60
2022/07/03 04:20:26;;;;;;;4.03;2.73;;;13.10;99.90;;;;;;4986700;28;20172;-60
2022/07/03 04:22:51;;;;;;;3.83;2.60;;;13.10;99.90;;;;;;4998636;28;20202;-60
2022/07/03 04:25:17;;;;;;;3.23;2.63;;;13.20;99.90;;;;;;4989926;28;20382;-60
2022/07/03 04:27:43;;;;;;;3.07;2.77;;;13.20;99.90;;;;;;4991048;28;20212;-61
2022/07/03 04:30:10;;;;;;;3.90;2.90;;;13.20;99.90;;;;;;5000854;28;20448;-60
2022/07/03 04:32:39;;;;;;;7.33;3.03;;;13.30;99.90;;;;;;5005863;28;20758;-62
2022/07/03 04:35:05;;;;;;;5.10;3.00;;;13.30;99.90;;;;;;4991105;28;20424;-60
2022/07/03 04:37:31;;;;;;;3.53;3.00;;;13.30;99.90;;;;;;4987225;28;20417;-60
2022/07/03 04:39:57;;;;;;;3.23;2.93;;;13.40;99.90;;;;;;4989753;28;20463;-59
2022/07/03 04:42:22;;;;;;;3.80;3.50;;;13.40;99.90;;;;;;4983926;28;20192;-60
2022/07/03 04:44:48;;;;;;;5.57;3.57;;;13.50;99.90;;;;;;4983524;28;20237;-60
2022/07/03 04:47:14;;;;;;;3.40;3.10;;;13.60;99.90;;;;;;4979748;28;20177;-60
2022/07/03 04:49:41;;;;;;;3.33;3.13;;;13.60;99.90;;;;;;4987635;28;20174;-60
2022/07/03 04:52:07;;;;;;;3.67;3.37;;;13.70;99.90;;;;;;4990399;28;20937;-60
2022/07/03 04:54:32;;;;;;;3.40;3.10;;;13.70;99.90;;;;;;4982846;28;20432;-60
2022/07/03 04:56:58;;;;;;;4.17;3.43;;;13.80;99.90;;;;;;4983783;28;20178;-60
2022/07/03 04:59:23;;;;;;;4.17;3.77;;;13.80;99.90;;;;;;4986713;28;20205;-59
2022/07/03 05:01:49;;;;;;;3.47;3.17;;;13.90;99.90;;;;;;4987519;28;20169;-60
2022/07/03 05:04:16;;;;;;;4.20;3.80;;;13.90;99.90;;;;;;4984074;28;20185;-62
2022/07/03 05:06:42;;;;;;;5.10;4.70;;;14.00;99.90;;;;;;4988512;28;20643;-61
2022/07/03 05:09:08;;;;;;;4.50;4.10;;;14.10;99.90;;;;;;4989488;28;20476;-60
2022/07/03 05:11:33;;;;;;;5.57;4.93;;;14.10;99.90;;;;;;4984015;28;20181;-61
2022/07/03 05:13:59;;;;;;;4.70;3.93;;;14.10;99.90;;;;;;4988232;28;20193;-60
2022/07/03 05:16:25;;;;;;;9.90;4.40;;;14.20;99.90;;;;;;4986447;28;20545;-60
2022/07/03 05:18:50;;;;;;;4.63;3.70;;;14.30;99.90;;;;;;4983639;28;20947;-60
2022/07/03 05:21:16;;;;;;;4.90;3.40;;;14.30;99.90;;;;;;4984061;28;20220;-61
2022/07/03 05:23:41;;;;;;;4.53;3.50;;;14.40;99.90;;;;;;4989247;28;20252;-60
2022/07/03 05:26:07;;;;;;;6.80;3.40;;;14.40;99.90;;;;;;4986873;28;20172;-60
2022/07/03 05:28:33;;;;;;;4.90;3.30;;;14.50;99.90;;;;;;4983359;28;20181;-61
2022/07/03 05:30:58;;;;;;;8.73;3.27;;;14.60;99.90;;;;;;4980944;28;20734;-61
2022/07/03 05:33:24;;;;;;;3.87;3.57;;;14.60;99.90;;;;;;4986892;28;20205;-60
2022/07/03 05:35:50;;;;;;;9.40;3.30;;;14.70;99.90;;;;;;4985327;28;20204;-60
2022/07/03 05:39:31;;;;;;;3.80;3.40;;;14.80;99.90;;;;;;4977834;28;20209;-60
2022/07/03 05:41:01;;;;;;;3.67;3.27;;;14.80;99.90;;;;;;4986271;28;20188;-60
2022/07/03 05:43:27;;;;;;;6.70;3.40;;;14.90;99.90;;;;;;4987054;28;20448;-61
2022/07/03 05:45:52;;;;;;;3.50;3.20;;;14.90;99.90;;;;;;4983084;28;20173;-60
2022/07/03 05:48:18;;;;;;;3.03;2.83;;;15.00;99.90;;;;;;4985507;28;20185;-60
2022/07/03 05:50:43;;;;;;;4.53;3.40;;;15.10;99.90;;;;;;4986115;28;20643;-60
2022/07/03 05:53:09;;;;;;;3.93;3.50;;;15.20;99.90;;;;;;4988417;28;20280;-60
2022/07/03 05:55:35;;;;;;;3.47;3.17;;;15.30;99.90;;;;;;4985583;28;20177;-60
2022/07/03 05:58:00;;;;;;;3.43;3.13;;;15.40;99.90;;;;;;4989773;28;20296;-61
2022/07/03 06:00:26;;;;;;;4.73;4.17;;;15.50;99.90;;;;;;4989228;28;20181;-61
2022/07/03 06:02:52;;;;;;;5.80;3.40;;;15.60;99.90;;;;;;4985346;28;20212;-61
2022/07/03 06:05:17;;;;;;;4.30;3.90;;;15.70;99.90;;;;;;4985729;28;20580;-62
2022/07/03 06:07:43;;;;;;;10.57;3.30;;;15.70;99.90;;;;;;4987776;28;20181;-61
2022/07/03 06:10:08;;;;;;;3.67;3.37;;;15.80;99.90;;;;;;4987227;28;20177;-61
2022/07/03 06:12:34;;;;;;;4.10;3.80;;;15.80;99.90;;;;;;4975107;28;20200;-61
2022/07/03 06:15:00;;;;;;;4.07;3.33;;;15.90;99.90;;;;;;4984653;28;20177;-60
2022/07/03 06:17:25;;;;;;;5.20;4.17;;;16.00;99.90;;;;;;4988181;28;20255;-61
2022/07/03 06:19:51;;;;;;;6.07;3.50;;;16.10;99.90;;;;;;4983655;28;20205;-61
2022/07/03 06:22:17;;;;;;;7.13;3.77;;;16.20;99.90;;;;;;4987770;28;20666;-61
2022/07/03 06:24:42;;;;;;;6.20;3.40;;;16.30;99.90;;;;;;4986120;28;20177;-61
2022/07/03 06:27:08;;;;;;;3.90;3.60;;;16.40;99.90;;;;;;4986449;28;20289;-60
2022/07/03 06:29:33;;;;;;;3.87;3.53;;;16.50;99.90;;;;;;4975072;28;20564;-61
2022/07/03 06:31:59;;;;;;;3.50;3.20;;;16.60;99.90;;;;;;4988643;28;20201;-61
2022/07/03 06:34:25;;;;;;;4.83;3.80;;;16.80;99.90;;;;;;4984173;28;20796;-61
2022/07/03 06:36:51;;;;;;;5.03;3.53;;;16.90;99.90;;;;;;4979696;28;20455;-61
2022/07/03 06:39:16;;;;;;;3.90;3.47;;;17.00;99.90;;;;;;4986442;28;20495;-61
2022/07/03 06:41:42;;;;;;;4.23;3.83;;;17.10;99.90;;;;;;4990958;28;20177;-60
2022/07/03 06:44:08;;;;;;;4.33;3.00;;;17.20;99.90;;;;;;4988856;28;20173;-61
2022/07/03 06:46:33;;;;;;;3.50;3.20;;;17.40;99.90;;;;;;4988929;28;20173;-60
2022/07/03 06:48:59;;;;;;;4.47;2.90;;;17.50;99.90;;;;;;4987165;28;20224;-61
2022/07/03 06:51:25;;;;;;;3.53;3.20;;;17.60;99.90;;;;;;4989015;28;20196;-61
2022/07/03 06:53:50;;;;;;;3.87;2.80;;;17.70;99.90;;;;;;4987527;28;20228;-61
2022/07/03 06:56:16;;;;;;;3.37;3.03;;;17.80;99.90;;;;;;4991206;28;20216;-61
2022/07/03 06:58:41;;;;;;;2.80;2.60;;;17.90;99.90;;;;;;4976756;28;20202;-61
2022/07/03 07:01:07;;;;;;;5.20;2.87;;;18.10;99.90;;;;;;4989281;28;20253;-61
2022/07/03 07:03:33;;;;;;;3.27;2.77;;;18.20;99.90;;;;;;4978280;28;20280;-62
2022/07/03 07:05:58;;;;;;;2.63;2.43;;;18.40;99.90;;;;;;4989465;28;20185;-61
2022/07/03 07:08:24;;;;;;;4.40;2.67;;;18.40;99.90;;;;;;4996894;28;20224;-61
2022/07/03 07:10:49;;;;;;;3.37;2.90;;;18.60;99.00;;;;;;4975224;28;20311;-58
2022/07/03 07:13:15;;;;;;;4.67;3.00;;;18.70;99.20;;;;;;4977091;28;20197;-56
2022/07/03 07:15:41;;;;;;;3.20;2.90;;;18.90;99.90;;;;;;4974431;28;20184;-56
2022/07/03 07:18:06;;;;;;;2.40;2.20;;;19.10;99.90;;;;;;4986066;28;20269;-58
2022/07/03 07:20:32;;;;;;;3.90;3.10;;;19.30;99.50;;;;;;4981174;28;20248;-56
2022/07/03 07:22:58;;;;;;;3.50;3.20;;;19.40;92.80;;;;;;4978285;28;20197;-61
2022/07/03 07:25:23;;;;;;;2.60;2.40;;;19.50;87.70;;;;;;4982403;28;20185;-61
2022/07/03 07:27:49;;;;;;;1.90;1.80;;;19.60;88.90;;;;;;4979797;28;20184;-62
2022/07/03 07:30:14;;;;;;;5.17;2.43;;;19.80;88.80;;;;;;4984832;28;20178;-60
2022/07/03 07:32:40;;;;;;;3.23;2.10;;;19.90;89.10;;;;;;4989059;28;20208;-61
2022/07/03 07:35:07;;;;;;;1.63;1.53;;;20.10;86.50;;;;;;4979181;28;20643;-62
2022/07/03 07:37:33;;;;;;;6.30;1.90;;;20.30;77.70;;;;;;4983752;28;20213;-62
2022/07/03 07:39:58;;;;;;;2.73;1.90;;;20.40;76.70;;;;;;4972986;28;20559;-61
2022/07/03 07:42:24;;;;;;;3.77;1.87;;;20.50;68.10;;;;;;4976968;28;20228;-62
2022/07/03 07:44:50;;;;;;;1.40;1.30;;;20.60;69.70;;;;;;4985190;28;20184;-62
2022/07/03 07:47:16;;;;;;;1.70;1.60;;;20.70;68.90;;;;;;4986805;28;20815;-63
2022/07/03 07:49:41;;;;;;;2.60;1.33;;;20.80;67.60;;;;;;4975106;28;20442;-62
2022/07/03 07:52:07;;;;;;;6.37;4.20;;;20.90;65.30;;;;;;4981609;28;20209;-62
2022/07/03 07:54:33;;;;;;;2.20;1.90;;;21.00;66.90;;;;;;4982948;28;20273;-61
2022/07/03 07:56:58;;;;;;;1.63;1.53;;;21.10;63.20;;;;;;4982142;28;20181;-62
2022/07/03 07:59:24;;;;;;;1.60;1.10;;;21.20;61.60;;;;;;4979282;28;20201;-62
2022/07/03 08:07:18;;;;;;;3.20;1.27;;;21.50;57.20;;;;;;4973610;28;20804;-61
2022/07/03 08:09:43;;;;;;;1.33;1.23;;;21.60;57.30;;;;;;4979401;28;20437;-62
2022/07/03 08:12:09;;;;;;;19.40;2.00;;;21.60;56.10;;;;;;4986354;28;20231;-62
2022/07/03 08:14:35;;;;;;;2.20;0.90;;;21.70;57.20;;;;;;4981975;28;20173;-61
2022/07/03 08:17:00;;;;;;;2.10;1.07;;;21.80;55.60;;;;;;4985798;28;20634;-61
2022/07/03 08:19:26;;;;;;;4.20;1.10;;;21.80;54.00;;;;;;4977799;28;20201;-62
2022/07/03 08:21:51;;;;;;;3.00;1.10;;;21.80;54.50;;;;;;4975297;28;20196;-62
2022/07/03 08:24:17;;;;;;;1.20;1.10;;;21.90;56.20;;;;;;4977093;28;20182;-63
2022/07/03 08:26:43;;;;;;;1.57;1.27;;;22.00;56.40;;;;;;4973026;28;20192;-63
2022/07/03 08:29:08;;;;;;;1.13;1.03;;;22.10;52.80;;;;;;4979143;28;20223;-62
2022/07/03 08:31:34;;;;;;;1.30;1.20;;;22.20;52.70;;;;;;4988983;28;20219;-62
2022/07/03 08:34:00;;;;;;;1.27;0.90;;;22.20;52.50;;;;;;4985555;28;20204;-62
2022/07/03 08:36:25;;;;;;;1.13;1.10;;;22.30;51.90;;;;;;4986422;28;20186;-62
2022/07/03 08:38:51;;;;;;;1.10;1.00;;;22.40;51.90;;;;;;4983565;28;20200;-62
2022/07/03 08:41:18;;;;;;;1.40;1.10;;;22.50;51.90;;;;;;4984519;28;20273;-62
2022/07/03 08:43:45;;;;;;;1.40;1.30;;;22.60;51.40;;;;;;4983230;28;20208;-62
2022/07/03 08:46:11;;;;;;;5.90;1.00;;;22.60;49.60;;;;;;4978363;28;20933;-62
2022/07/03 08:48:37;;;;;;;1.00;1.00;;;22.70;49.70;;;;;;4988295;28;21167;-62
2022/07/03 08:51:03;;;;;;;3.63;0.90;;;22.80;50.20;;;;;;4986328;28;20436;-62
2022/07/03 08:53:29;;;;;;;1.67;1.00;;;22.90;47.70;;;;;;4977092;28;20515;-63
2022/07/03 08:55:55;;;;;;;0.97;0.90;;;23.00;47.50;;;;;;4983247;28;20435;-62
2022/07/03 08:58:23;;;;;;;4.10;1.00;;;23.00;46.20;;;;;;4986961;28;20466;-62
2022/07/03 09:00:49;;;;;;;1.37;0.97;;;23.10;47.20;;;;;;4979243;28;21577;-62
2022/07/03 09:03:15;;;;;;;2.20;0.80;;;23.30;46.60;;;;;;4964319;28;20453;-61
2022/07/03 09:05:41;;;;;;;0.90;0.90;;;23.40;46.30;;;;;;4975249;28;20261;-61
2022/07/03 09:08:08;;;;;;;1.37;0.80;;;23.50;46.40;;;;;;4975024;28;20432;-61
2022/07/03 09:10:34;;;;;;;1.53;0.83;;;23.60;44.90;;;;;;4976904;28;20521;-62
2022/07/03 09:13:00;;;;;;;1.80;1.10;;;23.70;43.60;;;;;;4980206;28;21321;-62
2022/07/03 09:15:25;;;;;;;2.33;1.00;;;23.80;44.50;;;;;;4970192;28;20181;-62
2022/07/03 09:18:02;;;;;;;1.23;0.90;;;23.90;42.60;;;;;;4976817;28;20177;-62
2022/07/03 09:20:40;;;;;;;1.00;1.00;;;23.90;40.70;;;;;;4979027;28;20180;-62
2022/07/03 09:23:13;;;;;;;1.03;0.90;;;23.90;40.50;;;;;;4975211;28;20459;-62
2022/07/03 09:25:51;;;;;;;1.00;0.90;;;24.00;40.40;;;;;;4979037;28;20425;-62
2022/07/03 09:28:18;;;;;;;3.90;0.97;;;24.10;40.80;;;;;;4977725;28;20539;-62
2022/07/03 09:31:00;;;;;;;2.60;1.00;;;24.20;42.20;;;;;;4973589;28;20439;-62
2022/07/03 09:33:26;;;;;;;0.80;0.77;;;24.30;41.00;;;;;;4974429;28;20522;-62
2022/07/03 09:35:55;;;;;;;5.23;0.87;;;24.40;40.40;;;;;;4978738;28;20491;-62
2022/07/03 09:38:22;;;;;;;1.20;1.10;;;24.50;42.40;;;;;;4980827;28;20522;-62
2022/07/03 09:40:48;;;;;;;2.10;0.93;;;24.60;42.30;;;;;;4976534;28;20515;-63
2022/07/03 09:43:14;;;;;;;0.87;0.87;;;24.70;41.80;;;;;;4976366;28;21096;-62
2022/07/03 09:46:09;;;;;;;4.03;1.20;;;24.70;42.10;;;;;;4977086;28;20754;-62
2022/07/03 09:48:37;;;;;;;1.53;0.90;;;24.80;40.60;;;;;;4974968;28;20193;-62
2022/07/03 09:51:19;;;;;;;1.97;1.10;;;24.90;40.20;;;;;;4979600;28;20583;-62
2022/07/03 09:53:58;;;;;;;1.83;1.20;;;24.90;42.50;;;;;;4977959;28;20843;-62
2022/07/03 09:56:25;;;;;;;1.27;1.00;;;25.10;44.70;;;;;;4980511;28;20439;-61
2022/07/03 09:59:10;;;;;;;1.53;0.90;;;25.30;43.80;;;;;;4977429;28;20471;-62
2022/07/03 10:01:38;;;;;;;1.20;1.10;;;25.50;42.60;;;;;;4976796;28;20445;-62
2022/07/03 10:04:18;;;;;;;1.10;1.00;;;25.70;43.30;;;;;;4970130;28;20587;-62
2022/07/03 10:06:54;;;;;;;1.30;1.20;;;25.90;43.00;;;;;;4981499;28;20436;-62
2022/07/03 10:09:26;;;;;;;1.30;1.17;;;26.00;41.90;;;;;;4976353;28;21141;-62
2022/07/03 10:11:53;;;;;;;1.10;1.00;;;26.10;42.10;;;;;;4972075;28;20440;-62
2022/07/03 10:14:21;;;;;;;1.10;1.00;;;26.20;40.70;;;;;;4976716;28;20436;-63
2022/07/03 10:16:48;;;;;;;1.03;0.90;;;26.10;40.90;;;;;;4978257;28;20957;-63
2022/07/03 10:19:14;;;;;;;3.47;1.00;;;26.20;41.90;;;;;;4982353;28;21040;-63
2022/07/03 10:21:41;;;;;;;1.10;1.00;;;26.30;41.80;;;;;;4976853;28;20441;-62
2022/07/03 10:24:09;;;;;;;1.50;1.00;;;26.30;41.90;;;;;;4974850;28;20322;-66
2022/07/03 10:26:35;;;;;;;1.13;1.00;;;26.30;42.10;;;;;;4980351;28;20436;-63
2022/07/03 10:29:02;;;;;;;1.97;0.90;;;26.40;42.40;;;;;;4978658;28;20436;-64
2022/07/03 10:31:28;;;;;;;6.53;1.30;;;26.50;42.50;;;;;;4973591;28;20193;-61
2022/07/03 10:33:54;;;;;;;2.23;1.00;;;26.70;41.00;;;;;;4980202;28;20466;-61
2022/07/03 10:36:21;;;;;;;1.30;1.17;;;26.70;41.80;;;;;;4981389;28;20184;-62
2022/07/03 10:38:49;;;;;;;1.40;1.07;;;26.90;43.70;;;;;;4982400;28;20200;-63
2022/07/03 10:46:52;;;;;;;1.77;1.10;;;27.20;46.60;;;;;;4973453;28;20426;-63
2022/07/03 10:49:18;;;;;;;1.60;1.50;;;27.20;44.00;;;;;;4977811;28;20176;-63
2022/07/03 10:52:02;;;;;;;2.10;1.40;;;27.20;46.10;;;;;;4977604;28;20196;-65
2022/07/03 10:54:38;;;;;;;4.70;1.80;;;27.30;47.50;;;;;;4974400;28;20243;-66
2022/07/03 10:57:04;;;;;;;2.60;1.47;;;27.40;47.70;;;;;;4976371;28;20191;-65
2022/07/03 10:59:42;;;;;;;1.63;1.53;;;27.50;48.10;;;;;;4975282;28;20216;-63
2022/07/03 11:02:20;;;;;;;1.47;1.37;;;27.50;47.20;;;;;;4980395;28;20188;-63
2022/07/03 11:05:01;;;;;;;1.50;1.40;;;27.50;47.40;;;;;;4971162;28;20176;-62
2022/07/03 11:07:33;;;;;;;1.50;1.40;;;27.50;48.20;;;;;;4972320;28;20196;-63
2022/07/03 11:10:12;;;;;;;1.80;1.53;;;27.60;49.20;;;;;;4975214;28;20184;-61
2022/07/03 11:12:56;;;;;;;1.50;1.40;;;27.70;49.00;;;;;;4974565;28;20256;-61
2022/07/03 11:15:37;;;;;;;1.47;1.37;;;27.80;46.00;;;;;;4971928;28;21067;-63
2022/07/03 11:18:08;;;;;;;1.20;1.20;;;27.80;46.00;;;;;;4971150;28;20647;-63
2022/07/03 11:20:34;;;;;;;2.13;1.60;;;27.80;46.20;;;;;;4975798;28;20181;-63
2022/07/03 11:23:15;;;;;;;1.67;1.57;;;27.90;47.60;;;;;;4974251;28;20231;-63
2022/07/03 11:25:49;;;;;;;2.30;1.50;;;28.10;47.20;;;;;;4971692;28;20208;-64
2022/07/03 11:28:33;;;;;;;2.40;1.63;;;28.30;47.70;;;;;;4977492;28;20182;-64
2022/07/03 11:31:17;;;;;;;1.73;1.63;;;28.40;46.00;;;;;;4964761;28;20821;-62
2022/07/03 11:33:51;;;;;;;2.00;1.33;;;28.50;45.70;;;;;;4972626;28;20721;-59
2022/07/03 11:36:17;;;;;;;2.17;1.53;;;28.50;44.30;;;;;;4966660;28;20194;-59
2022/07/03 11:38:55;;;;;;;2.10;1.50;;;28.60;45.20;;;;;;4979214;28;20212;-58
2022/07/03 11:41:22;;;;;;;1.80;1.70;;;28.70;45.30;;;;;;4978598;28;20219;-59
2022/07/03 11:43:49;;;;;;;2.70;1.17;;;28.80;44.90;;;;;;4978763;28;20200;-60
2022/07/03 11:46:26;;;;;;;1.50;1.40;;;28.70;43.70;;;;;;4977735;28;20178;-61
2022/07/03 11:49:05;;;;;;;3.53;1.83;;;28.60;42.30;;;;;;4980777;28;20184;-61
2022/07/03 11:51:30;;;;;;;4.07;1.40;;;28.50;44.70;;;;;;4979729;28;20216;-60
2022/07/03 11:53:56;;;;;;;2.40;1.43;;;28.60;45.70;;;;;;4974182;28;21277;-61
2022/07/03 11:56:22;;;;;;;1.33;1.20;;;28.80;46.10;;;;;;4973538;28;20223;-59
2022/07/03 11:58:50;;;;;;;2.08;1.27;;;29.00;46.70;;;;;;4988205;28;20200;-59
2022/07/03 12:01:27;;;;;;;2.42;1.52;;;29.10;44.20;;;;;;4982907;28;20181;-59
2022/07/03 12:04:01;;;;;;;2.65;1.52;;;29.10;43.70;;;;;;4983611;28;20883;-60
2022/07/03 12:06:48;;;;;;;1.60;1.45;;;29.20;45.00;;;;;;4989207;28;20215;-60
2022/07/03 12:09:36;;;;;;;3.65;1.80;;;29.30;46.10;;;;;;4984262;28;20577;-59
2022/07/03 12:12:09;;;;;;;1.38;1.27;;;29.40;45.20;;;;;;4990345;28;20709;-59
2022/07/03 12:14:48;;;;;;;4.72;1.83;;;29.30;44.30;;;;;;4986066;28;20852;-58
2022/07/03 12:17:22;;;;;;;1.23;1.10;;;29.30;43.50;;;;;;4988680;28;20198;-59
2022/07/03 12:20:00;;;;;;;2.20;1.30;;;29.50;43.70;;;;;;4989052;28;20608;-60
2022/07/03 12:22:27;;;;;;;1.40;1.30;;;29.60;44.60;;;;;;4988816;28;20201;-59
2022/07/03 12:24:56;;;;;;;3.03;1.50;;;29.70;44.60;;;;;;4983974;28;20315;-59
2022/07/03 12:27:22;;;;;;;1.70;1.50;;;29.90;44.30;;;;;;4981852;28;20175;-59
2022/07/03 12:29:48;;;;;;;2.97;1.90;;;30.00;42.00;;;;;;4987549;28;20173;-62
2022/07/03 12:32:14;;;;;;;2.30;1.30;;;30.10;41.70;;;;;;4988000;28;20224;-60
2022/07/03 12:34:40;;;;;;;2.15;1.38;;;30.20;42.30;;;;;;4981901;28;20604;-60
2022/07/03 12:37:06;;;;;;;1.48;1.38;;;30.30;41.00;;;;;;4987981;28;20263;-59
2022/07/03 12:39:45;;;;;;;2.28;1.35;;;30.40;42.80;;;;;;4988319;28;20196;-59
2022/07/03 12:42:18;;;;;;;1.50;1.40;;;30.50;40.90;;;;;;4984512;28;20197;-59
2022/07/03 12:45:02;;;;;;;1.33;1.23;;;30.40;40.20;;;;;;4980993;28;20176;-60
2022/07/03 12:47:29;;;;;;;1.40;1.30;;;30.40;40.60;;;;;;4990069;28;20673;-59
2022/07/03 12:50:00;;;;;;;1.40;1.30;;;30.50;41.30;;;;;;4988220;28;20196;-61
2022/07/03 12:52:27;;;;;;;1.27;1.17;;;30.60;41.10;;;;;;4981867;28;20259;-59
2022/07/03 12:54:53;;;;;;;1.58;1.10;;;30.80;41.50;;;;;;4986437;28;20184;-59
2022/07/03 13:00:06;;;;;;;2.63;1.25;;;30.80;39.50;;;;;;4983284;28;20648;-59
2022/07/03 13:02:38;;;;;;;1.23;1.13;;;30.90;40.60;;;;;;4981806;28;20193;-59
2022/07/03 13:05:24;;;;;;;1.67;1.20;;;31.00;41.90;;;;;;4983567;28;20181;-60
2022/07/03 13:08:05;;;;;;;1.35;1.20;;;31.10;40.20;;;;;;4988096;28;20180;-59
2022/07/03 13:10:30;;;;;;;2.72;1.48;;;31.20;38.80;;;;;;4987600;28;20174;-59
2022/07/03 13:12:58;;;;;;;1.70;1.60;;;31.20;39.40;;;;;;4984141;28;20199;-60
2022/07/03 13:15:28;;;;;;;2.58;1.52;;;31.30;39.80;;;;;;4976503;28;20252;-61